sensor_id;sensor_type;location;lat;lon;timestamp;P1;durP1;ratioP1;P2;durP2;ratioP2
69401;SDS011;56589;51.992;5.924;2022-08-25T00:01:11;4.22;;;2.20;;
69401;SDS011;56589;51.992;5.924;2022-08-25T00:03:40;3.55;;;2.00;;
69401;SDS011;56589;51.992;5.924;2022-08-25T00:06:07;3.65;;;2.17;;
69401;SDS011;56589;51.992;5.924;2022-08-25T00:08:35;4.25;;;2.05;;
69401;SDS011;56589;51.992;5.924;2022-08-25T00:11:05;4.93;;;2.05;;
69401;SDS011;56589;51.992;5.924;2022-08-25T00:13:34;6.68;;;2.00;;
69401;SDS011;56589;51.992;5.924;2022-08-25T00:15:59;7.03;;;2.65;;
69401;SDS011;56589;51.992;5.924;2022-08-25T00:18:25;3.55;;;2.25;;
69401;SDS011;56589;51.992;5.924;2022-08-25T00:20:51;5.00;;;2.80;;
69401;SDS011;56589;51.992;5.924;2022-08-25T00:23:17;4.55;;;2.22;;
69401;SDS011;56589;51.992;5.924;2022-08-25T00:25:43;4.10;;;2.20;;
69401;SDS011;56589;51.992;5.924;2022-08-25T00:28:12;3.10;;;1.55;;
69401;SDS011;56589;51.992;5.924;2022-08-25T00:30:38;5.88;;;2.22;;
69401;SDS011;56589;51.992;5.924;2022-08-25T00:33:03;4.65;;;2.70;;
69401;SDS011;56589;51.992;5.924;2022-08-25T00:35:29;4.50;;;2.20;;
69401;SDS011;56589;51.992;5.924;2022-08-25T00:37:55;4.28;;;2.08;;
69401;SDS011;56589;51.992;5.924;2022-08-25T00:40:21;6.57;;;2.20;;
69401;SDS011;56589;51.992;5.924;2022-08-25T00:42:48;3.08;;;1.92;;
69401;SDS011;56589;51.992;5.924;2022-08-25T00:45:17;4.82;;;2.53;;
69401;SDS011;56589;51.992;5.924;2022-08-25T00:47:43;4.85;;;2.28;;
69401;SDS011;56589;51.992;5.924;2022-08-25T00:50:09;6.80;;;2.20;;
69401;SDS011;56589;51.992;5.924;2022-08-25T00:52:37;4.32;;;2.75;;
69401;SDS011;56589;51.992;5.924;2022-08-25T00:55:10;4.38;;;2.42;;
69401;SDS011;56589;51.992;5.924;2022-08-25T00:57:45;3.80;;;2.33;;
69401;SDS011;56589;51.992;5.924;2022-08-25T01:00:22;5.72;;;2.60;;
69401;SDS011;56589;51.992;5.924;2022-08-25T01:02:53;8.95;;;2.60;;
69401;SDS011;56589;51.992;5.924;2022-08-25T01:05:19;4.93;;;2.30;;
69401;SDS011;56589;51.992;5.924;2022-08-25T01:07:45;3.33;;;2.03;;
69401;SDS011;56589;51.992;5.924;2022-08-25T01:10:11;5.53;;;2.50;;
69401;SDS011;56589;51.992;5.924;2022-08-25T01:12:38;7.50;;;2.67;;
69401;SDS011;56589;51.992;5.924;2022-08-25T01:15:09;6.07;;;2.25;;
69401;SDS011;56589;51.992;5.924;2022-08-25T01:17:44;5.85;;;2.40;;
69401;SDS011;56589;51.992;5.924;2022-08-25T01:20:13;5.78;;;2.45;;
69401;SDS011;56589;51.992;5.924;2022-08-25T01:22:44;8.75;;;2.72;;
69401;SDS011;56589;51.992;5.924;2022-08-25T01:25:16;4.53;;;2.63;;
69401;SDS011;56589;51.992;5.924;2022-08-25T01:27:56;4.70;;;2.13;;
69401;SDS011;56589;51.992;5.924;2022-08-25T01:30:22;6.95;;;2.25;;
69401;SDS011;56589;51.992;5.924;2022-08-25T01:32:49;5.32;;;2.50;;
69401;SDS011;56589;51.992;5.924;2022-08-25T01:35:15;2.95;;;2.28;;
69401;SDS011;56589;51.992;5.924;2022-08-25T01:37:44;8.18;;;2.58;;
69401;SDS011;56589;51.992;5.924;2022-08-25T01:40:10;5.45;;;2.22;;
69401;SDS011;56589;51.992;5.924;2022-08-25T01:42:41;3.83;;;2.55;;
69401;SDS011;56589;51.992;5.924;2022-08-25T01:45:18;7.25;;;2.72;;
69401;SDS011;56589;51.992;5.924;2022-08-25T01:47:44;4.00;;;2.58;;
69401;SDS011;56589;51.992;5.924;2022-08-25T01:50:10;6.78;;;2.65;;
69401;SDS011;56589;51.992;5.924;2022-08-25T01:52:38;7.05;;;2.92;;
69401;SDS011;56589;51.992;5.924;2022-08-25T01:55:18;6.82;;;2.63;;
69401;SDS011;56589;51.992;5.924;2022-08-25T01:57:44;4.22;;;2.35;;
69401;SDS011;56589;51.992;5.924;2022-08-25T02:00:11;7.25;;;2.30;;
69401;SDS011;56589;51.992;5.924;2022-08-25T02:02:40;4.88;;;2.10;;
69401;SDS011;56589;51.992;5.924;2022-08-25T02:05:06;4.15;;;2.33;;
69401;SDS011;56589;51.992;5.924;2022-08-25T02:07:34;6.63;;;2.40;;
69401;SDS011;56589;51.992;5.924;2022-08-25T02:10:03;6.07;;;2.50;;
69401;SDS011;56589;51.992;5.924;2022-08-25T02:12:31;7.63;;;2.50;;
69401;SDS011;56589;51.992;5.924;2022-08-25T02:14:58;4.45;;;2.33;;
69401;SDS011;56589;51.992;5.924;2022-08-25T02:17:24;7.18;;;2.60;;
69401;SDS011;56589;51.992;5.924;2022-08-25T02:19:50;4.72;;;2.25;;
69401;SDS011;56589;51.992;5.924;2022-08-25T02:22:16;5.65;;;2.22;;
69401;SDS011;56589;51.992;5.924;2022-08-25T02:24:42;7.20;;;2.33;;
69401;SDS011;56589;51.992;5.924;2022-08-25T02:27:10;6.68;;;2.50;;
69401;SDS011;56589;51.992;5.924;2022-08-25T02:29:36;7.20;;;2.50;;
69401;SDS011;56589;51.992;5.924;2022-08-25T02:32:02;5.28;;;2.33;;
69401;SDS011;56589;51.992;5.924;2022-08-25T02:34:28;4.20;;;2.30;;
69401;SDS011;56589;51.992;5.924;2022-08-25T02:36:54;5.65;;;2.58;;
69401;SDS011;56589;51.992;5.924;2022-08-25T02:39:20;5.18;;;2.00;;
69401;SDS011;56589;51.992;5.924;2022-08-25T02:41:45;5.30;;;2.42;;
69401;SDS011;56589;51.992;5.924;2022-08-25T02:44:14;4.15;;;1.95;;
69401;SDS011;56589;51.992;5.924;2022-08-25T02:46:40;6.00;;;2.17;;
69401;SDS011;56589;51.992;5.924;2022-08-25T02:49:06;5.45;;;2.95;;
69401;SDS011;56589;51.992;5.924;2022-08-25T02:51:32;4.07;;;2.50;;
69401;SDS011;56589;51.992;5.924;2022-08-25T02:53:59;9.50;;;2.50;;
69401;SDS011;56589;51.992;5.924;2022-08-25T02:56:27;4.75;;;2.30;;
69401;SDS011;56589;51.992;5.924;2022-08-25T02:58:54;5.75;;;2.22;;
69401;SDS011;56589;51.992;5.924;2022-08-25T03:01:23;6.65;;;2.17;;
69401;SDS011;56589;51.992;5.924;2022-08-25T03:03:49;12.10;;;2.30;;
69401;SDS011;56589;51.992;5.924;2022-08-25T03:06:16;3.83;;;2.13;;
69401;SDS011;56589;51.992;5.924;2022-08-25T03:08:45;5.38;;;2.90;;
69401;SDS011;56589;51.992;5.924;2022-08-25T03:11:11;4.88;;;2.50;;
69401;SDS011;56589;51.992;5.924;2022-08-25T03:13:37;5.03;;;2.70;;
69401;SDS011;56589;51.992;5.924;2022-08-25T03:16:04;4.75;;;2.58;;
69401;SDS011;56589;51.992;5.924;2022-08-25T03:18:35;4.35;;;2.22;;
69401;SDS011;56589;51.992;5.924;2022-08-25T03:21:02;10.63;;;2.85;;
69401;SDS011;56589;51.992;5.924;2022-08-25T03:23:28;5.28;;;2.47;;
69401;SDS011;56589;51.992;5.924;2022-08-25T03:25:54;5.38;;;2.40;;
69401;SDS011;56589;51.992;5.924;2022-08-25T03:28:20;4.03;;;3.00;;
69401;SDS011;56589;51.992;5.924;2022-08-25T03:30:46;3.85;;;2.40;;
69401;SDS011;56589;51.992;5.924;2022-08-25T03:33:12;5.95;;;2.63;;
69401;SDS011;56589;51.992;5.924;2022-08-25T03:35:40;6.03;;;2.53;;
69401;SDS011;56589;51.992;5.924;2022-08-25T03:38:06;5.05;;;2.55;;
69401;SDS011;56589;51.992;5.924;2022-08-25T03:40:32;6.00;;;2.92;;
69401;SDS011;56589;51.992;5.924;2022-08-25T03:42:58;5.63;;;2.33;;
69401;SDS011;56589;51.992;5.924;2022-08-25T03:45:24;6.55;;;2.53;;
69401;SDS011;56589;51.992;5.924;2022-08-25T03:47:51;7.47;;;2.65;;
69401;SDS011;56589;51.992;5.924;2022-08-25T03:50:18;11.52;;;3.15;;
69401;SDS011;56589;51.992;5.924;2022-08-25T03:52:52;6.18;;;2.92;;
69401;SDS011;56589;51.992;5.924;2022-08-25T03:55:20;5.93;;;2.28;;
69401;SDS011;56589;51.992;5.924;2022-08-25T03:57:49;6.20;;;2.78;;
69401;SDS011;56589;51.992;5.924;2022-08-25T04:00:15;9.15;;;3.00;;
69401;SDS011;56589;51.992;5.924;2022-08-25T04:02:41;10.57;;;2.92;;
69401;SDS011;56589;51.992;5.924;2022-08-25T04:05:08;5.78;;;2.90;;
69401;SDS011;56589;51.992;5.924;2022-08-25T04:07:34;7.07;;;2.85;;
69401;SDS011;56589;51.992;5.924;2022-08-25T04:10:03;5.20;;;2.65;;
69401;SDS011;56589;51.992;5.924;2022-08-25T04:12:30;9.07;;;3.00;;
69401;SDS011;56589;51.992;5.924;2022-08-25T04:14:56;8.35;;;2.90;;
69401;SDS011;56589;51.992;5.924;2022-08-25T04:17:22;5.28;;;3.00;;
69401;SDS011;56589;51.992;5.924;2022-08-25T04:19:48;6.47;;;3.25;;
69401;SDS011;56589;51.992;5.924;2022-08-25T04:22:13;5.45;;;3.13;;
69401;SDS011;56589;51.992;5.924;2022-08-25T04:24:39;6.97;;;2.90;;
69401;SDS011;56589;51.992;5.924;2022-08-25T04:27:07;5.68;;;3.17;;
69401;SDS011;56589;51.992;5.924;2022-08-25T04:29:33;7.53;;;3.30;;
69401;SDS011;56589;51.992;5.924;2022-08-25T04:31:59;8.48;;;3.20;;
69401;SDS011;56589;51.992;5.924;2022-08-25T04:34:25;7.82;;;3.10;;
69401;SDS011;56589;51.992;5.924;2022-08-25T04:36:51;5.38;;;2.85;;
69401;SDS011;56589;51.992;5.924;2022-08-25T04:39:18;7.68;;;3.00;;
69401;SDS011;56589;51.992;5.924;2022-08-25T04:41:45;8.88;;;3.22;;
69401;SDS011;56589;51.992;5.924;2022-08-25T04:44:13;6.97;;;3.20;;
69401;SDS011;56589;51.992;5.924;2022-08-25T04:46:40;4.38;;;2.78;;
69401;SDS011;56589;51.992;5.924;2022-08-25T04:49:06;5.45;;;3.40;;
69401;SDS011;56589;51.992;5.924;2022-08-25T04:51:35;5.95;;;3.00;;
69401;SDS011;56589;51.992;5.924;2022-08-25T04:54:05;3.70;;;2.83;;
69401;SDS011;56589;51.992;5.924;2022-08-25T04:56:34;6.18;;;3.10;;
69401;SDS011;56589;51.992;5.924;2022-08-25T04:59:02;4.55;;;3.30;;
69401;SDS011;56589;51.992;5.924;2022-08-25T05:01:32;6.47;;;3.40;;
69401;SDS011;56589;51.992;5.924;2022-08-25T05:04:00;7.30;;;3.03;;
69401;SDS011;56589;51.992;5.924;2022-08-25T05:06:29;4.13;;;3.20;;
69401;SDS011;56589;51.992;5.924;2022-08-25T05:08:56;6.82;;;3.30;;
69401;SDS011;56589;51.992;5.924;2022-08-25T05:11:24;10.82;;;3.10;;
69401;SDS011;56589;51.992;5.924;2022-08-25T05:13:51;11.27;;;3.30;;
69401;SDS011;56589;51.992;5.924;2022-08-25T05:16:20;5.95;;;2.90;;
69401;SDS011;56589;51.992;5.924;2022-08-25T05:18:51;5.53;;;3.10;;
69401;SDS011;56589;51.992;5.924;2022-08-25T05:21:19;6.03;;;3.05;;
69401;SDS011;56589;51.992;5.924;2022-08-25T05:23:53;5.18;;;3.05;;
69401;SDS011;56589;51.992;5.924;2022-08-25T05:26:21;5.18;;;3.10;;
69401;SDS011;56589;51.992;5.924;2022-08-25T05:28:49;6.57;;;3.20;;
69401;SDS011;56589;51.992;5.924;2022-08-25T05:31:18;5.93;;;3.05;;
69401;SDS011;56589;51.992;5.924;2022-08-25T05:33:45;7.05;;;3.42;;
69401;SDS011;56589;51.992;5.924;2022-08-25T05:36:14;7.63;;;3.08;;
69401;SDS011;56589;51.992;5.924;2022-08-25T05:38:41;11.35;;;3.72;;
69401;SDS011;56589;51.992;5.924;2022-08-25T05:41:08;9.55;;;3.45;;
69401;SDS011;56589;51.992;5.924;2022-08-25T05:43:39;9.60;;;3.60;;
69401;SDS011;56589;51.992;5.924;2022-08-25T05:46:07;4.97;;;3.67;;
69401;SDS011;56589;51.992;5.924;2022-08-25T05:48:34;7.07;;;3.15;;
69401;SDS011;56589;51.992;5.924;2022-08-25T05:51:02;8.45;;;3.30;;
69401;SDS011;56589;51.992;5.924;2022-08-25T05:53:33;8.85;;;2.55;;
69401;SDS011;56589;51.992;5.924;2022-08-25T05:56:00;5.18;;;3.10;;
69401;SDS011;56589;51.992;5.924;2022-08-25T05:58:26;6.32;;;3.20;;
69401;SDS011;56589;51.992;5.924;2022-08-25T06:00:54;5.50;;;2.80;;
69401;SDS011;56589;51.992;5.924;2022-08-25T06:03:21;6.53;;;2.88;;
69401;SDS011;56589;51.992;5.924;2022-08-25T06:05:47;7.93;;;2.90;;
69401;SDS011;56589;51.992;5.924;2022-08-25T06:08:14;10.70;;;3.10;;
69401;SDS011;56589;51.992;5.924;2022-08-25T06:10:42;5.68;;;2.80;;
69401;SDS011;56589;51.992;5.924;2022-08-25T06:13:08;8.15;;;3.42;;
69401;SDS011;56589;51.992;5.924;2022-08-25T06:15:34;5.25;;;2.70;;
69401;SDS011;56589;51.992;5.924;2022-08-25T06:17:59;11.85;;;2.88;;
69401;SDS011;56589;51.992;5.924;2022-08-25T06:20:26;7.18;;;2.63;;
69401;SDS011;56589;51.992;5.924;2022-08-25T06:22:55;7.10;;;3.08;;
69401;SDS011;56589;51.992;5.924;2022-08-25T06:25:23;5.28;;;2.67;;
69401;SDS011;56589;51.992;5.924;2022-08-25T06:27:53;7.07;;;2.50;;
69401;SDS011;56589;51.992;5.924;2022-08-25T06:30:20;5.38;;;3.33;;
69401;SDS011;56589;51.992;5.924;2022-08-25T06:32:47;6.57;;;3.00;;
69401;SDS011;56589;51.992;5.924;2022-08-25T06:35:14;5.72;;;2.80;;
69401;SDS011;56589;51.992;5.924;2022-08-25T06:37:43;7.50;;;2.92;;
69401;SDS011;56589;51.992;5.924;2022-08-25T06:40:11;9.25;;;3.10;;
69401;SDS011;56589;51.992;5.924;2022-08-25T06:42:38;6.32;;;2.60;;
69401;SDS011;56589;51.992;5.924;2022-08-25T06:45:07;10.10;;;2.65;;
69401;SDS011;56589;51.992;5.924;2022-08-25T06:47:34;6.80;;;2.95;;
69401;SDS011;56589;51.992;5.924;2022-08-25T06:50:00;6.85;;;2.65;;
69401;SDS011;56589;51.992;5.924;2022-08-25T06:52:25;6.03;;;2.55;;
69401;SDS011;56589;51.992;5.924;2022-08-25T06:54:51;9.52;;;3.03;;
69401;SDS011;56589;51.992;5.924;2022-08-25T06:57:17;8.70;;;2.83;;
69401;SDS011;56589;51.992;5.924;2022-08-25T06:59:43;8.65;;;2.67;;
69401;SDS011;56589;51.992;5.924;2022-08-25T07:02:11;6.53;;;2.45;;
69401;SDS011;56589;51.992;5.924;2022-08-25T07:04:37;5.28;;;2.40;;
69401;SDS011;56589;51.992;5.924;2022-08-25T07:07:03;7.22;;;2.60;;
69401;SDS011;56589;51.992;5.924;2022-08-25T07:09:29;7.05;;;2.50;;
69401;SDS011;56589;51.992;5.924;2022-08-25T07:11:55;5.57;;;2.60;;
69401;SDS011;56589;51.992;5.924;2022-08-25T07:14:21;7.47;;;3.00;;
69401;SDS011;56589;51.992;5.924;2022-08-25T07:16:47;6.93;;;3.13;;
69401;SDS011;56589;51.992;5.924;2022-08-25T07:19:16;6.07;;;2.67;;
69401;SDS011;56589;51.992;5.924;2022-08-25T07:21:42;13.27;;;3.40;;
69401;SDS011;56589;51.992;5.924;2022-08-25T07:24:09;15.25;;;2.78;;
69401;SDS011;56589;51.992;5.924;2022-08-25T07:26:38;7.80;;;3.05;;
69401;SDS011;56589;51.992;5.924;2022-08-25T07:29:07;4.90;;;3.00;;
69401;SDS011;56589;51.992;5.924;2022-08-25T07:31:35;7.78;;;3.33;;
69401;SDS011;56589;51.992;5.924;2022-08-25T07:34:01;6.85;;;2.70;;
69401;SDS011;56589;51.992;5.924;2022-08-25T07:36:30;8.57;;;2.83;;
69401;SDS011;56589;51.992;5.924;2022-08-25T07:38:56;5.50;;;2.60;;
69401;SDS011;56589;51.992;5.924;2022-08-25T07:41:22;8.95;;;2.53;;
69401;SDS011;56589;51.992;5.924;2022-08-25T07:43:49;5.47;;;2.95;;
69401;SDS011;56589;51.992;5.924;2022-08-25T07:46:15;7.95;;;2.90;;
69401;SDS011;56589;51.992;5.924;2022-08-25T07:48:40;6.28;;;2.63;;
69401;SDS011;56589;51.992;5.924;2022-08-25T07:51:07;3.88;;;2.67;;
69401;SDS011;56589;51.992;5.924;2022-08-25T07:53:37;9.60;;;3.70;;
69401;SDS011;56589;51.992;5.924;2022-08-25T07:56:08;6.00;;;2.92;;
69401;SDS011;56589;51.992;5.924;2022-08-25T07:58:35;5.35;;;2.67;;
69401;SDS011;56589;51.992;5.924;2022-08-25T08:01:01;7.10;;;2.92;;
69401;SDS011;56589;51.992;5.924;2022-08-25T08:03:27;11.70;;;2.70;;
69401;SDS011;56589;51.992;5.924;2022-08-25T08:05:53;7.93;;;2.90;;
69401;SDS011;56589;51.992;5.924;2022-08-25T08:08:19;10.35;;;3.20;;
69401;SDS011;56589;51.992;5.924;2022-08-25T08:10:47;4.60;;;2.70;;
69401;SDS011;56589;51.992;5.924;2022-08-25T08:13:13;4.47;;;2.70;;
69401;SDS011;56589;51.992;5.924;2022-08-25T08:15:41;8.25;;;3.35;;
69401;SDS011;56589;51.992;5.924;2022-08-25T08:18:08;10.57;;;3.30;;
69401;SDS011;56589;51.992;5.924;2022-08-25T08:20:34;4.85;;;2.58;;
69401;SDS011;56589;51.992;5.924;2022-08-25T08:22:59;4.95;;;2.83;;
69401;SDS011;56589;51.992;5.924;2022-08-25T08:25:25;7.20;;;2.67;;
69401;SDS011;56589;51.992;5.924;2022-08-25T08:27:54;10.57;;;2.83;;
69401;SDS011;56589;51.992;5.924;2022-08-25T08:30:21;8.48;;;2.78;;
69401;SDS011;56589;51.992;5.924;2022-08-25T08:32:47;9.15;;;2.70;;
69401;SDS011;56589;51.992;5.924;2022-08-25T08:35:13;6.40;;;2.70;;
69401;SDS011;56589;51.992;5.924;2022-08-25T08:37:38;7.95;;;2.65;;
69401;SDS011;56589;51.992;5.924;2022-08-25T08:40:05;4.18;;;2.55;;
69401;SDS011;56589;51.992;5.924;2022-08-25T08:42:37;5.82;;;2.47;;
69401;SDS011;56589;51.992;5.924;2022-08-25T08:45:23;4.97;;;2.53;;
69401;SDS011;56589;51.992;5.924;2022-08-25T08:48:00;8.52;;;3.08;;
69401;SDS011;56589;51.992;5.924;2022-08-25T08:51:00;8.88;;;2.45;;
69401;SDS011;56589;51.992;5.924;2022-08-25T08:53:39;4.18;;;2.20;;
69401;SDS011;56589;51.992;5.924;2022-08-25T08:58:39;8.40;;;2.70;;
69401;SDS011;56589;51.992;5.924;2022-08-25T09:01:15;5.53;;;2.60;;
69401;SDS011;56589;51.992;5.924;2022-08-25T09:03:49;7.32;;;2.65;;
69401;SDS011;56589;51.992;5.924;2022-08-25T09:06:29;4.50;;;2.38;;
69401;SDS011;56589;51.992;5.924;2022-08-25T09:09:03;9.38;;;2.60;;
69401;SDS011;56589;51.992;5.924;2022-08-25T09:11:34;7.47;;;2.60;;
69401;SDS011;56589;51.992;5.924;2022-08-25T09:14:22;6.95;;;2.60;;
69401;SDS011;56589;51.992;5.924;2022-08-25T09:17:14;5.80;;;2.58;;
69401;SDS011;56589;51.992;5.924;2022-08-25T09:19:58;4.30;;;2.50;;
69401;SDS011;56589;51.992;5.924;2022-08-25T09:22:45;4.55;;;2.67;;
69401;SDS011;56589;51.992;5.924;2022-08-25T09:25:26;9.20;;;2.47;;
69401;SDS011;56589;51.992;5.924;2022-08-25T09:28:07;6.65;;;3.22;;
69401;SDS011;56589;51.992;5.924;2022-08-25T09:30:43;3.08;;;2.28;;
69401;SDS011;56589;51.992;5.924;2022-08-25T09:33:22;7.28;;;2.58;;
69401;SDS011;56589;51.992;5.924;2022-08-25T09:35:50;5.32;;;2.60;;
69401;SDS011;56589;51.992;5.924;2022-08-25T09:38:19;8.43;;;2.25;;
69401;SDS011;56589;51.992;5.924;2022-08-25T09:40:47;6.85;;;2.70;;
69401;SDS011;56589;51.992;5.924;2022-08-25T09:43:19;7.38;;;2.78;;
69401;SDS011;56589;51.992;5.924;2022-08-25T09:45:49;3.63;;;2.20;;
69401;SDS011;56589;51.992;5.924;2022-08-25T09:48:26;8.63;;;3.22;;
69401;SDS011;56589;51.992;5.924;2022-08-25T09:50:57;7.17;;;2.10;;
69401;SDS011;56589;51.992;5.924;2022-08-25T09:53:34;6.03;;;2.42;;
69401;SDS011;56589;51.992;5.924;2022-08-25T09:56:00;5.80;;;2.30;;
69401;SDS011;56589;51.992;5.924;2022-08-25T09:58:29;5.70;;;2.25;;
69401;SDS011;56589;51.992;5.924;2022-08-25T10:01:00;10.98;;;2.30;;
69401;SDS011;56589;51.992;5.924;2022-08-25T10:03:38;6.32;;;2.30;;
69401;SDS011;56589;51.992;5.924;2022-08-25T10:06:20;4.80;;;2.38;;
69401;SDS011;56589;51.992;5.924;2022-08-25T10:08:50;6.55;;;2.28;;
69401;SDS011;56589;51.992;5.924;2022-08-25T10:11:30;6.05;;;1.95;;
69401;SDS011;56589;51.992;5.924;2022-08-25T10:14:05;7.18;;;1.90;;
69401;SDS011;56589;51.992;5.924;2022-08-25T10:16:42;3.80;;;1.98;;
69401;SDS011;56589;51.992;5.924;2022-08-25T10:19:12;5.03;;;1.92;;
69401;SDS011;56589;51.992;5.924;2022-08-25T10:22:00;4.85;;;2.03;;
69401;SDS011;56589;51.992;5.924;2022-08-25T10:24:30;5.47;;;2.10;;
69401;SDS011;56589;51.992;5.924;2022-08-25T10:26:57;5.20;;;2.35;;
69401;SDS011;56589;51.992;5.924;2022-08-25T10:29:37;3.50;;;1.98;;
69401;SDS011;56589;51.992;5.924;2022-08-25T10:32:38;5.80;;;2.30;;
69401;SDS011;56589;51.992;5.924;2022-08-25T10:35:26;6.45;;;2.08;;
69401;SDS011;56589;51.992;5.924;2022-08-25T10:38:02;6.18;;;2.20;;
69401;SDS011;56589;51.992;5.924;2022-08-25T10:40:45;4.20;;;2.03;;
69401;SDS011;56589;51.992;5.924;2022-08-25T10:43:22;5.22;;;2.00;;
69401;SDS011;56589;51.992;5.924;2022-08-25T10:46:04;3.72;;;1.88;;
69401;SDS011;56589;51.992;5.924;2022-08-25T10:48:54;5.68;;;2.17;;
69401;SDS011;56589;51.992;5.924;2022-08-25T10:51:34;4.10;;;2.22;;
69401;SDS011;56589;51.992;5.924;2022-08-25T10:54:15;5.95;;;2.10;;
69401;SDS011;56589;51.992;5.924;2022-08-25T10:56:57;4.18;;;2.05;;
69401;SDS011;56589;51.992;5.924;2022-08-25T11:05:47;7.18;;;1.60;;
69401;SDS011;56589;51.992;5.924;2022-08-25T11:08:25;2.65;;;1.77;;
69401;SDS011;56589;51.992;5.924;2022-08-25T11:11:01;7.63;;;2.10;;
69401;SDS011;56589;51.992;5.924;2022-08-25T11:13:36;2.80;;;1.80;;
69401;SDS011;56589;51.992;5.924;2022-08-25T11:16:11;3.60;;;1.45;;
69401;SDS011;56589;51.992;5.924;2022-08-25T11:18:47;7.70;;;2.53;;
69401;SDS011;56589;51.992;5.924;2022-08-25T11:21:22;5.63;;;1.73;;
69401;SDS011;56589;51.992;5.924;2022-08-25T11:24:05;5.35;;;1.85;;
69401;SDS011;56589;51.992;5.924;2022-08-25T11:26:47;5.03;;;1.83;;
69401;SDS011;56589;51.992;5.924;2022-08-25T11:29:19;4.90;;;1.75;;
69401;SDS011;56589;51.992;5.924;2022-08-25T11:31:52;4.00;;;1.63;;
69401;SDS011;56589;51.992;5.924;2022-08-25T11:34:19;4.20;;;1.60;;
69401;SDS011;56589;51.992;5.924;2022-08-25T11:36:48;2.88;;;1.45;;
69401;SDS011;56589;51.992;5.924;2022-08-25T11:39:24;3.40;;;1.52;;
69401;SDS011;56589;51.992;5.924;2022-08-25T11:42:10;2.63;;;1.60;;
69401;SDS011;56589;51.992;5.924;2022-08-25T11:44:53;3.80;;;1.65;;
69401;SDS011;56589;51.992;5.924;2022-08-25T11:47:35;4.72;;;1.45;;
69401;SDS011;56589;51.992;5.924;2022-08-25T11:50:24;3.88;;;1.60;;
69401;SDS011;56589;51.992;5.924;2022-08-25T11:52:54;7.32;;;1.92;;
69401;SDS011;56589;51.992;5.924;2022-08-25T11:55:28;2.45;;;1.30;;
69401;SDS011;56589;51.992;5.924;2022-08-25T12:01:08;4.20;;;1.80;;
69401;SDS011;56589;51.992;5.924;2022-08-25T12:04:09;3.35;;;1.80;;
69401;SDS011;56589;51.992;5.924;2022-08-25T12:10:12;8.73;;;1.70;;
69401;SDS011;56589;51.992;5.924;2022-08-25T12:12:57;4.80;;;1.40;;
69401;SDS011;56589;51.992;5.924;2022-08-25T12:15:32;3.85;;;2.08;;
69401;SDS011;56589;51.992;5.924;2022-08-25T12:21:10;3.40;;;1.30;;
69401;SDS011;56589;51.992;5.924;2022-08-25T12:23:39;3.30;;;1.30;;
69401;SDS011;56589;51.992;5.924;2022-08-25T12:26:11;3.53;;;1.60;;
69401;SDS011;56589;51.992;5.924;2022-08-25T12:29:03;1.83;;;1.38;;
69401;SDS011;56589;51.992;5.924;2022-08-25T12:31:45;4.20;;;1.50;;
69401;SDS011;56589;51.992;5.924;2022-08-25T12:34:33;3.08;;;1.50;;
69401;SDS011;56589;51.992;5.924;2022-08-25T12:37:27;2.20;;;1.65;;
69401;SDS011;56589;51.992;5.924;2022-08-25T12:39:56;2.20;;;1.67;;
69401;SDS011;56589;51.992;5.924;2022-08-25T12:42:27;1.95;;;1.42;;
69401;SDS011;56589;51.992;5.924;2022-08-25T12:51:07;2.50;;;1.45;;
69401;SDS011;56589;51.992;5.924;2022-08-25T12:53:42;5.20;;;1.60;;
69401;SDS011;56589;51.992;5.924;2022-08-25T12:56:21;5.93;;;1.60;;
69401;SDS011;56589;51.992;5.924;2022-08-25T12:59:02;2.35;;;1.42;;
69401;SDS011;56589;51.992;5.924;2022-08-25T13:01:46;4.18;;;1.40;;
69401;SDS011;56589;51.992;5.924;2022-08-25T13:04:58;3.47;;;1.63;;
69401;SDS011;56589;51.992;5.924;2022-08-25T13:07:47;3.42;;;1.52;;
69401;SDS011;56589;51.992;5.924;2022-08-25T13:10:38;3.28;;;1.40;;
69401;SDS011;56589;51.992;5.924;2022-08-25T13:13:15;2.83;;;1.60;;
69401;SDS011;56589;51.992;5.924;2022-08-25T13:16:03;2.47;;;1.30;;
69401;SDS011;56589;51.992;5.924;2022-08-25T13:18:34;4.82;;;1.67;;
69401;SDS011;56589;51.992;5.924;2022-08-25T13:21:14;2.67;;;1.50;;
69401;SDS011;56589;51.992;5.924;2022-08-25T13:23:44;4.03;;;1.80;;
69401;SDS011;56589;51.992;5.924;2022-08-25T13:26:13;5.95;;;1.83;;
69401;SDS011;56589;51.992;5.924;2022-08-25T13:28:56;3.03;;;1.50;;
69401;SDS011;56589;51.992;5.924;2022-08-25T13:31:25;3.25;;;1.42;;
69401;SDS011;56589;51.992;5.924;2022-08-25T13:33:56;2.22;;;1.25;;
69401;SDS011;56589;51.992;5.924;2022-08-25T13:36:25;3.35;;;1.60;;
69401;SDS011;56589;51.992;5.924;2022-08-25T13:38:53;2.28;;;1.73;;
69401;SDS011;56589;51.992;5.924;2022-08-25T13:41:21;2.42;;;1.45;;
69401;SDS011;56589;51.992;5.924;2022-08-25T13:43:50;5.10;;;1.60;;
69401;SDS011;56589;51.992;5.924;2022-08-25T13:46:19;3.00;;;1.50;;
69401;SDS011;56589;51.992;5.924;2022-08-25T13:48:46;2.05;;;1.48;;
69401;SDS011;56589;51.992;5.924;2022-08-25T13:51:19;6.63;;;1.67;;
69401;SDS011;56589;51.992;5.924;2022-08-25T13:53:51;2.22;;;1.27;;
69401;SDS011;56589;51.992;5.924;2022-08-25T13:56:24;3.80;;;1.50;;
69401;SDS011;56589;51.992;5.924;2022-08-25T13:58:56;2.28;;;1.42;;
69401;SDS011;56589;51.992;5.924;2022-08-25T14:01:25;2.55;;;1.40;;
69401;SDS011;56589;51.992;5.924;2022-08-25T14:03:55;2.38;;;1.40;;
69401;SDS011;56589;51.992;5.924;2022-08-25T14:09:54;5.07;;;1.55;;
69401;SDS011;56589;51.992;5.924;2022-08-25T14:12:31;2.55;;;1.48;;
69401;SDS011;56589;51.992;5.924;2022-08-25T14:15:04;2.33;;;1.38;;
69401;SDS011;56589;51.992;5.924;2022-08-25T14:17:37;3.30;;;1.25;;
69401;SDS011;56589;51.992;5.924;2022-08-25T14:20:14;3.30;;;1.35;;
69401;SDS011;56589;51.992;5.924;2022-08-25T14:22:47;5.53;;;1.60;;
69401;SDS011;56589;51.992;5.924;2022-08-25T14:25:18;3.78;;;1.60;;
69401;SDS011;56589;51.992;5.924;2022-08-25T14:27:44;2.60;;;1.20;;
69401;SDS011;56589;51.992;5.924;2022-08-25T14:30:20;1.95;;;1.45;;
69401;SDS011;56589;51.992;5.924;2022-08-25T14:32:46;3.72;;;1.45;;
69401;SDS011;56589;51.992;5.924;2022-08-25T14:35:11;2.13;;;1.70;;
69401;SDS011;56589;51.992;5.924;2022-08-25T14:37:37;3.65;;;1.60;;
69401;SDS011;56589;51.992;5.924;2022-08-25T14:40:06;1.58;;;1.20;;
69401;SDS011;56589;51.992;5.924;2022-08-25T14:42:33;2.60;;;1.40;;
69401;SDS011;56589;51.992;5.924;2022-08-25T14:44:59;2.70;;;1.27;;
69401;SDS011;56589;51.992;5.924;2022-08-25T14:47:25;4.50;;;1.40;;
69401;SDS011;56589;51.992;5.924;2022-08-25T14:49:50;3.30;;;1.40;;
69401;SDS011;56589;51.992;5.924;2022-08-25T14:52:18;2.03;;;1.50;;
69401;SDS011;56589;51.992;5.924;2022-08-25T14:54:48;4.13;;;1.52;;
69401;SDS011;56589;51.992;5.924;2022-08-25T14:57:17;5.30;;;1.50;;
69401;SDS011;56589;51.992;5.924;2022-08-25T14:59:42;4.40;;;1.30;;
69401;SDS011;56589;51.992;5.924;2022-08-25T15:02:08;2.10;;;1.48;;
69401;SDS011;56589;51.992;5.924;2022-08-25T15:04:38;4.88;;;1.65;;
69401;SDS011;56589;51.992;5.924;2022-08-25T15:07:04;2.10;;;1.42;;
69401;SDS011;56589;51.992;5.924;2022-08-25T15:09:30;5.88;;;1.55;;
69401;SDS011;56589;51.992;5.924;2022-08-25T15:11:56;4.28;;;1.42;;
69401;SDS011;56589;51.992;5.924;2022-08-25T15:14:25;2.88;;;1.23;;
69401;SDS011;56589;51.992;5.924;2022-08-25T15:16:51;5.03;;;1.70;;
69401;SDS011;56589;51.992;5.924;2022-08-25T15:19:20;2.25;;;1.33;;
69401;SDS011;56589;51.992;5.924;2022-08-25T15:21:50;3.95;;;1.35;;
69401;SDS011;56589;51.992;5.924;2022-08-25T15:24:17;3.08;;;1.30;;
69401;SDS011;56589;51.992;5.924;2022-08-25T15:26:45;2.83;;;1.45;;
69401;SDS011;56589;51.992;5.924;2022-08-25T15:29:15;2.85;;;1.40;;
69401;SDS011;56589;51.992;5.924;2022-08-25T15:31:43;3.70;;;1.40;;
69401;SDS011;56589;51.992;5.924;2022-08-25T15:34:09;3.22;;;1.13;;
69401;SDS011;56589;51.992;5.924;2022-08-25T15:36:35;1.48;;;1.27;;